Terminal Aerodrome Forecast
Issued by NWS

Home | Current Version | Previous Version | Text Only | Print | Product List | Glossary On
Versions: 1 2 3 4 5 6 7 8 9 10 11 12
000
FTUS45 KABQ 272300
TAFLVS
TAF
KLVS 272336Z 2800/2824 17010KT P6SM SCT250
     FM280300 33007KT P6SM BKN200
     FM281800 25011KT P6SM BKN250
      TEMPO 2819/2823 26013G21KT=

USA.gov is the U.S. government's official web portal to all federal, state and local government web resources and services.